Time;durP1;ratioP1;P1;durP2;ratioP2;P2;SDS_P1;SDS_P2;PMS_P1;PMS_P2;Temp;Humidity;BMP_temperature;BMP_pressure;BME280_temperature;BME280_humidity;BME280_pressure;Samples;Min_cycle;Max_cycle;Signal;HPM_P1;HPM_P2
2023/01/18 01:08:15;;;;;;;60.80;34.00;;;;;;;12.97;100.00;99409.75;107303;1292;21988;-63
2023/01/18 01:10:47;;;;;;;53.00;28.20;;;;;;;13.54;100.00;99407.45;107625;1293;22004;-64
2023/01/18 01:26:58;;;;;;;22.00;10.60;;;;;;;14.47;100.00;99399.54;107806;1286;22001;-63
2023/01/18 01:29:24;;;;;;;25.60;10.00;;;;;;;14.52;100.00;99393.30;107490;1294;22000;-63
2023/01/18 01:31:49;;;;;;;27.60;10.20;;;;;;;14.56;100.00;99389.60;107778;1293;22001;-72
2023/01/18 01:34:15;;;;;;;18.00;8.40;;;;;;;14.59;100.00;99390.54;107785;1293;22017;-72
2023/01/18 01:36:40;;;;;;;20.40;8.20;;;;;;;14.60;100.00;99381.64;107797;1290;21998;-65
2023/01/18 01:39:09;;;;;;;20.50;8.30;;;;;;;14.53;100.00;99378.09;107774;1292;21999;-64
2023/01/18 01:41:35;;;;;;;23.30;8.00;;;;;;;14.56;100.00;99376.52;107750;1292;21993;-64
2023/01/18 01:44:26;;;;;;;20.40;8.30;;;;;;;14.78;100.00;99373.10;107795;1292;22006;-64
2023/01/18 01:47:03;;;;;;;23.60;9.30;;;;;;;14.92;100.00;99367.72;107688;1292;22288;-64
2023/01/18 01:49:46;;;;;;;18.80;7.70;;;;;;;14.98;100.00;99358.43;107736;1292;21993;-72
2023/01/18 01:52:18;;;;;;;22.70;7.60;;;;;;;15.00;100.00;99357.81;107764;1292;21997;-64
2023/01/18 01:54:54;;;;;;;18.50;7.20;;;;;;;14.99;100.00;99353.60;107828;1292;21998;-72
2023/01/18 01:57:30;;;;;;;15.10;6.10;;;;;;;14.96;100.00;99354.98;107820;1292;21996;-64
2023/01/18 01:59:56;;;;;;;15.90;7.30;;;;;;;14.98;100.00;99355.22;107708;1292;22002;-70
2023/01/18 02:02:21;;;;;;;23.10;7.40;;;;;;;14.98;100.00;99352.22;107696;1290;22163;-71
2023/01/18 02:04:52;;;;;;;19.80;6.50;;;;;;;15.00;100.00;99348.94;107688;1292;21993;-71
2023/01/18 02:07:20;;;;;;;22.90;7.90;;;;;;;15.05;100.00;99352.09;107698;1294;22007;-72
2023/01/18 02:09:45;;;;;;;18.30;7.90;;;;;;;15.07;99.96;99346.50;107820;1291;22000;-67
2023/01/18 02:12:11;;;;;;;20.00;7.70;;;;;;;14.95;99.96;99344.08;107676;1291;22006;-64
2023/01/18 02:14:37;;;;;;;17.30;7.70;;;;;;;14.91;100.00;99344.80;107767;1293;22037;-63
2023/01/18 02:17:27;;;;;;;20.70;7.80;;;;;;;14.86;100.00;99342.73;107719;1289;21997;-71
2023/01/18 02:20:18;;;;;;;21.90;7.20;;;;;;;14.85;100.00;99340.13;107688;1293;23702;-64
2023/01/18 02:22:47;;;;;;;23.30;7.40;;;;;;;14.78;100.00;99344.88;107783;1294;21997;-64
2023/01/18 02:25:31;;;;;;;17.70;6.50;;;;;;;14.79;100.00;99340.39;107744;1293;21993;-65
2023/01/18 02:28:31;;;;;;;17.90;6.60;;;;;;;14.83;100.00;99336.34;107709;1293;22008;-70
2023/01/18 02:31:19;;;;;;;14.80;5.30;;;;;;;14.87;99.93;99336.52;107348;1293;22000;-71
2023/01/18 02:33:49;;;;;;;18.60;5.80;;;;;;;14.95;99.34;99331.88;107693;1294;22039;-71
2023/01/18 02:36:54;;;;;;;18.90;5.90;;;;;;;14.91;99.00;99331.02;107729;1293;21999;-71
2023/01/18 02:39:30;;;;;;;15.10;6.00;;;;;;;15.02;97.85;99326.44;107670;1294;22044;-63
2023/01/18 02:47:29;;;;;;;23.20;5.90;;;;;;;15.07;96.72;99319.12;107566;1293;22464;-71
2023/01/18 02:49:56;;;;;;;16.60;5.30;;;;;;;15.06;96.62;99317.79;107321;1294;22001;-71
2023/01/18 02:52:39;;;;;;;15.40;4.30;;;;;;;15.08;96.20;99317.84;107708;1293;21999;-64
2023/01/18 02:55:08;;;;;;;14.10;4.80;;;;;;;15.14;95.92;99317.20;107722;1294;22006;-64
2023/01/18 02:57:34;;;;;;;17.50;4.60;;;;;;;15.14;95.70;99317.05;107586;1294;22045;-70
2023/01/18 03:00:00;;;;;;;17.80;4.70;;;;;;;15.11;95.41;99313.11;107703;1293;22007;-63
2023/01/18 03:02:25;;;;;;;26.50;5.10;;;;;;;15.09;95.23;99311.98;107512;1293;21996;-64
2023/01/18 03:04:54;;;;;;;16.70;4.70;;;;;;;14.99;95.62;99308.20;107735;1291;21997;-64
2023/01/18 03:07:34;;;;;;;14.80;5.10;;;;;;;14.97;96.01;99310.77;107774;1290;22029;-64
2023/01/18 03:10:01;;;;;;;16.60;4.90;;;;;;;14.99;95.70;99312.45;107863;1291;22052;-64
2023/01/18 03:12:51;;;;;;;19.10;5.50;;;;;;;15.09;95.21;99304.17;107754;1290;21995;-71
2023/01/18 03:15:29;;;;;;;15.50;5.00;;;;;;;15.12;95.21;99298.20;107725;1291;22013;-65
2023/01/18 03:18:17;;;;;;;15.50;4.10;;;;;;;15.15;94.64;99295.80;107766;1290;22001;-71
2023/01/18 03:20:46;;;;;;;22.10;5.90;;;;;;;15.16;94.51;99292.55;107732;1291;21993;-71
2023/01/18 03:23:38;;;;;;;16.40;5.00;;;;;;;15.12;94.56;99297.48;107761;1291;21998;-63
2023/01/18 03:26:14;;;;;;;14.50;5.50;;;;;;;15.15;94.39;99302.33;107746;1291;22043;-64
2023/01/18 03:34:17;;;;;;;21.90;8.40;;;;;;;15.23;94.21;99303.20;107860;1291;21998;-71
2023/01/18 03:36:46;;;;;;;29.90;8.90;;;;;;;15.19;93.87;99301.97;107722;1291;21996;-71
2023/01/18 03:39:29;;;;;;;29.40;10.70;;;;;;;15.11;94.28;99302.70;107826;1291;21993;-71
2023/01/18 03:42:01;;;;;;;25.00;9.00;;;;;;;15.11;94.69;99304.80;107873;1291;21991;-63
2023/01/18 03:44:34;;;;;;;30.40;10.00;;;;;;;15.10;94.78;99305.74;107781;1291;21999;-72
2023/01/18 03:47:02;;;;;;;29.90;9.80;;;;;;;15.12;94.65;99304.59;107780;1291;21995;-63
2023/01/18 03:49:27;;;;;;;15.00;5.70;;;;;;;15.17;94.45;99304.89;107774;1290;22001;-64
2023/01/18 03:52:11;;;;;;;15.90;5.90;;;;;;;15.17;94.49;99310.70;107750;1291;22002;-71
2023/01/18 03:54:44;;;;;;;21.60;5.70;;;;;;;15.19;94.47;99311.16;107734;1291;22008;-71
2023/01/18 03:57:25;;;;;;;20.20;6.70;;;;;;;15.21;94.07;99307.54;107753;1291;23303;-63
2023/01/18 03:59:50;;;;;;;16.40;5.30;;;;;;;15.23;94.07;99304.40;107781;1291;21988;-71
2023/01/18 04:02:16;;;;;;;16.10;4.00;;;;;;;15.23;94.23;99304.05;107759;1291;21990;-63
2023/01/18 07:34:47;;;;;;;45.30;16.30;;;;;;;12.42;100.00;99405.05;107681;1285;548323;-64
2023/01/18 07:37:38;;;;;;;31.10;7.30;;;;;;;15.57;100.00;99388.48;108062;1288;22243;-63
2023/01/18 07:40:07;;;;;;;28.40;7.60;;;;;;;16.01;100.00;99386.38;108130;1288;22025;-63
2023/01/18 07:42:34;;;;;;;20.00;4.90;;;;;;;16.17;100.00;99383.92;108146;1288;22054;-63
2023/01/18 07:44:59;;;;;;;30.50;7.30;;;;;;;16.30;100.00;99384.02;108093;1288;21991;-63
2023/01/18 07:47:25;;;;;;;18.10;4.70;;;;;;;16.45;100.00;99386.05;107861;1286;387303;-64
2023/01/18 07:49:51;;;;;;;20.30;4.90;;;;;;;16.62;100.00;99378.99;108090;1286;21994;-64
2023/01/18 07:52:16;;;;;;;18.80;4.60;;;;;;;16.72;100.00;99372.06;108110;1285;23647;-60
2023/01/18 07:54:42;;;;;;;20.80;4.20;;;;;;;16.84;100.00;99379.06;108232;1285;21983;-64
2023/01/18 07:57:09;;;;;;;16.30;5.00;;;;;;;16.92;100.00;99376.66;108119;1285;22010;-61
2023/01/18 07:59:34;;;;;;;22.80;8.00;;;;;;;16.94;100.00;99374.10;108129;1285;22003;-62
2023/01/18 08:02:00;;;;;;;27.20;9.70;;;;;;;16.95;100.00;99376.88;108181;1285;21992;-65
2023/01/18 08:04:26;;;;;;;22.80;5.20;;;;;;;16.96;99.80;99375.57;108275;1286;22001;-64
2023/01/18 08:06:51;;;;;;;18.40;5.10;;;;;;;17.01;99.83;99376.89;108306;1285;21987;-64
2023/01/18 08:09:17;;;;;;;22.20;4.70;;;;;;;17.07;99.36;99382.79;108229;1285;21983;-61
2023/01/18 08:11:43;;;;;;;19.40;4.40;;;;;;;17.10;99.08;99385.27;108103;1286;21994;-62
2023/01/18 08:14:09;;;;;;;14.30;4.30;;;;;;;17.14;98.42;99384.58;108309;1284;21992;-63
2023/01/18 08:16:35;;;;;;;20.30;4.30;;;;;;;17.11;97.73;99376.20;108208;1285;21985;-63
2023/01/18 08:19:01;;;;;;;18.70;4.00;;;;;;;17.08;97.27;99365.92;108268;1284;21995;-64
2023/01/18 08:21:28;;;;;;;20.00;4.20;;;;;;;17.03;96.50;99370.96;108248;1284;21990;-60
2023/01/18 08:23:54;;;;;;;22.90;7.10;;;;;;;17.02;96.43;99371.89;108380;1284;21972;-60
2023/01/18 08:26:21;;;;;;;17.50;4.00;;;;;;;16.99;96.76;99373.63;108363;1284;21990;-64
2023/01/18 08:28:46;;;;;;;19.20;4.60;;;;;;;16.97;96.13;99369.84;108398;1284;22001;-61
2023/01/18 08:31:15;;;;;;;16.50;5.20;;;;;;;17.03;96.71;99372.37;108373;1284;23046;-64
2023/01/18 08:33:44;;;;;;;21.40;6.00;;;;;;;17.09;97.21;99371.33;108347;1284;21998;-63
2023/01/18 08:36:15;;;;;;;19.60;7.20;;;;;;;17.13;96.14;99375.92;108312;1270;23827;-64
2023/01/18 08:38:41;;;;;;;19.80;5.20;;;;;;;17.05;94.53;99377.23;108346;1284;21971;-64
2023/01/18 08:41:07;;;;;;;22.80;5.30;;;;;;;16.95;94.92;99375.09;108348;1284;22039;-65
2023/01/18 08:43:34;;;;;;;21.90;4.50;;;;;;;16.91;95.30;99377.41;108333;1284;21999;-64
2023/01/18 08:46:00;;;;;;;25.20;5.40;;;;;;;16.91;94.68;99385.95;108278;1284;22001;-63
2023/01/18 08:48:26;;;;;;;17.70;5.10;;;;;;;16.98;94.76;99377.77;108158;1285;21995;-63
2023/01/18 08:50:53;;;;;;;17.30;4.40;;;;;;;17.04;95.16;99376.23;108139;1285;22005;-63
2023/01/18 08:53:19;;;;;;;20.90;4.70;;;;;;;17.07;95.33;99382.98;108230;1284;21989;-63
2023/01/18 08:55:45;;;;;;;15.30;4.50;;;;;;;17.07;95.19;99390.42;108199;1284;21989;-63
2023/01/18 08:58:11;;;;;;;23.40;4.90;;;;;;;17.08;94.60;99385.23;108244;1284;21995;-63
2023/01/18 09:00:37;;;;;;;18.10;4.70;;;;;;;17.29;93.73;99385.16;108200;1284;22023;-62
2023/01/18 09:03:05;;;;;;;17.60;4.00;;;;;;;17.41;93.00;99380.38;108274;1284;21981;-61
2023/01/18 09:05:33;;;;;;;18.80;4.60;;;;;;;17.49;93.08;99368.74;108246;1284;21989;-60
2023/01/18 09:08:00;;;;;;;20.70;4.30;;;;;;;17.51;93.15;99367.58;108216;1284;21995;-62
2023/01/18 09:10:26;;;;;;;22.90;4.40;;;;;;;17.57;93.05;99361.21;108247;1284;22052;-62
2023/01/18 09:12:53;;;;;;;22.20;5.30;;;;;;;17.62;92.09;99358.41;108202;1284;23060;-61
2023/01/18 09:15:19;;;;;;;17.50;4.20;;;;;;;17.62;91.15;99352.02;108328;1284;24372;-60
2023/01/18 09:17:45;;;;;;;21.40;4.50;;;;;;;17.60;92.62;99346.66;108147;1284;21950;-62
2023/01/18 09:20:11;;;;;;;13.50;3.40;;;;;;;17.63;93.51;99342.80;108178;1284;21985;-61
2023/01/18 09:22:38;;;;;;;15.70;3.40;;;;;;;17.79;94.35;99336.34;108248;1284;22096;-61
2023/01/18 09:25:05;;;;;;;18.30;4.60;;;;;;;17.99;92.66;99327.75;108249;1284;21994;-60
2023/01/18 09:27:31;;;;;;;19.40;5.00;;;;;;;18.01;92.92;99324.80;108212;1284;21980;-64
2023/01/18 09:29:57;;;;;;;19.00;4.50;;;;;;;18.03;92.93;99326.64;108168;1284;22449;-63
2023/01/18 09:32:24;;;;;;;21.30;4.30;;;;;;;18.03;92.11;99323.41;108222;1284;21985;-63
2023/01/18 09:34:50;;;;;;;17.90;4.50;;;;;;;18.20;93.00;99326.50;108148;1284;21983;-64
2023/01/18 09:37:17;;;;;;;14.30;4.00;;;;;;;18.27;92.05;99326.96;108222;1283;21979;-62
2023/01/18 09:39:46;;;;;;;16.20;4.90;;;;;;;18.31;91.33;99322.98;108377;1283;21983;-60
2023/01/18 09:42:35;;;;;;;21.50;8.10;;;;;;;18.28;91.11;99320.85;108323;1283;22017;-63
2023/01/18 09:45:00;;;;;;;21.10;7.30;;;;;;;18.26;94.69;99321.34;108261;1284;21985;-64
2023/01/18 09:47:28;;;;;;;19.40;5.90;;;;;;;18.26;97.56;99321.53;108225;1284;22023;-63
2023/01/18 09:49:56;;;;;;;12.90;3.70;;;;;;;18.32;94.13;99323.30;108225;1284;22454;-64
2023/01/18 09:52:31;;;;;;;20.10;7.60;;;;;;;18.38;89.91;99322.00;108327;1284;21995;-60
2023/01/18 09:55:19;;;;;;;27.50;8.90;;;;;;;18.44;90.48;99316.48;108284;1280;21991;-61
2023/01/18 09:58:17;;;;;;;24.50;6.30;;;;;;;18.52;90.71;99313.69;108355;1283;21995;-61
2023/01/18 10:00:45;;;;;;;21.50;4.50;;;;;;;18.41;86.68;99319.56;108391;1283;21981;-61
2023/01/18 10:03:31;;;;;;;18.70;4.30;;;;;;;18.47;86.63;99324.52;108112;1283;21985;-63
2023/01/18 10:06:08;;;;;;;21.70;5.00;;;;;;;18.61;87.32;99330.38;108003;1283;21990;-61
2023/01/18 10:08:37;;;;;;;14.70;4.20;;;;;;;18.77;86.66;99328.51;108327;1283;21986;-61
2023/01/18 10:11:04;;;;;;;23.40;4.50;;;;;;;18.84;84.65;99321.50;108392;1283;21985;-61
2023/01/18 10:13:47;;;;;;;18.60;3.60;;;;;;;18.89;83.37;99315.10;108286;1283;21987;-60
2023/01/18 10:16:15;;;;;;;21.30;4.60;;;;;;;18.86;82.83;99314.06;108013;1285;21979;-61
2023/01/18 10:18:47;;;;;;;28.30;5.20;;;;;;;18.71;82.56;99313.60;108098;1285;21991;-63
2023/01/18 10:21:22;;;;;;;18.50;3.60;;;;;;;18.64;82.98;99311.55;108482;1284;23114;-65
2023/01/18 10:24:09;;;;;;;18.60;4.50;;;;;;;18.46;82.38;99306.80;108225;1285;22046;-60
2023/01/18 10:26:35;;;;;;;25.50;4.90;;;;;;;18.42;82.81;99306.88;108090;1285;22007;-64
2023/01/18 10:29:13;;;;;;;17.10;3.90;;;;;;;18.36;83.63;99305.26;108084;1285;21987;-63
2023/01/18 10:31:48;;;;;;;27.50;5.20;;;;;;;18.25;84.06;99305.44;108129;1285;23592;-64
2023/01/18 10:34:21;;;;;;;17.00;3.60;;;;;;;18.24;85.30;99302.13;108067;1285;21976;-64
2023/01/18 10:36:52;;;;;;;23.70;3.90;;;;;;;18.20;84.47;99305.15;108074;1285;22025;-63
2023/01/18 10:39:29;;;;;;;26.40;4.80;;;;;;;18.01;83.72;99307.05;108113;1285;22008;-64
2023/01/18 10:42:01;;;;;;;17.20;3.80;;;;;;;17.98;83.75;99305.96;108059;1284;21985;-60
2023/01/18 10:44:27;;;;;;;22.90;4.60;;;;;;;17.93;83.72;99302.36;108201;1284;22020;-60
2023/01/18 10:46:57;;;;;;;18.60;4.30;;;;;;;17.89;83.94;99301.16;108295;1284;21953;-60
2023/01/18 10:49:36;;;;;;;11.80;3.70;;;;;;;17.86;83.97;99301.70;108246;1284;21998;-59
2023/01/18 10:52:28;;;;;;;18.50;4.80;;;;;;;17.80;84.13;99308.08;108245;1285;21988;-63
2023/01/18 10:54:56;;;;;;;19.70;3.80;;;;;;;17.81;84.65;99301.80;108101;1285;21986;-65
2023/01/18 10:57:47;;;;;;;16.90;4.20;;;;;;;17.81;84.66;99305.00;108192;1285;22015;-64
2023/01/18 11:00:34;;;;;;;17.10;4.20;;;;;;;17.88;85.31;99299.96;108138;1279;21984;-60
2023/01/18 11:03:01;;;;;;;19.70;4.50;;;;;;;17.96;84.80;99287.82;108219;1284;21981;-60
2023/01/18 11:05:38;;;;;;;19.60;4.60;;;;;;;18.05;84.26;99295.25;108208;1284;21998;-59
2023/01/18 11:08:11;;;;;;;17.20;5.00;;;;;;;18.03;83.46;99302.82;108103;1285;21973;-64
2023/01/18 11:10:37;;;;;;;24.10;4.10;;;;;;;17.97;83.02;99294.30;108098;1285;21988;-59
2023/01/18 11:13:11;;;;;;;18.60;4.00;;;;;;;18.03;83.09;99288.08;108111;1285;21993;-59
2023/01/18 11:15:38;;;;;;;17.00;4.00;;;;;;;18.10;83.67;99292.67;108161;1285;22540;-66
2023/01/18 11:18:08;;;;;;;16.50;4.40;;;;;;;17.99;83.34;99288.69;108230;1284;23702;-61
2023/01/18 11:20:35;;;;;;;17.70;4.80;;;;;;;18.04;83.24;99286.42;108262;1284;21986;-61
2023/01/18 11:23:04;;;;;;;17.80;4.40;;;;;;;18.15;84.05;99282.96;108134;1285;22042;-60
2023/01/18 11:25:35;;;;;;;21.60;4.60;;;;;;;18.15;83.62;99283.64;108163;1284;21991;-65
2023/01/18 11:28:01;;;;;;;16.80;4.00;;;;;;;18.05;82.77;99276.78;108076;1284;21988;-65
2023/01/18 11:30:27;;;;;;;20.20;4.60;;;;;;;18.17;83.24;99270.05;108217;1284;22113;-59
2023/01/18 11:32:54;;;;;;;16.30;3.90;;;;;;;18.27;82.68;99266.09;108220;1284;22040;-59
2023/01/18 11:35:28;;;;;;;17.90;4.20;;;;;;;18.37;82.92;99266.47;108354;1284;21981;-64
2023/01/18 11:37:57;;;;;;;13.80;3.40;;;;;;;18.41;82.68;99258.46;108127;1284;22021;-64
2023/01/18 11:40:27;;;;;;;14.60;4.70;;;;;;;18.42;81.87;99257.83;108087;1285;21989;-64
2023/01/18 11:43:02;;;;;;;18.80;4.20;;;;;;;18.45;81.37;99259.63;108109;1285;22067;-65
2023/01/18 11:45:39;;;;;;;19.20;4.40;;;;;;;18.56;81.46;99252.15;108148;1284;21982;-60
2023/01/18 11:48:14;;;;;;;15.30;4.40;;;;;;;18.81;81.71;99260.16;108096;1284;21986;-61
2023/01/18 11:50:42;;;;;;;15.70;3.90;;;;;;;18.93;79.84;99248.06;108303;1284;22024;-59
2023/01/18 11:53:07;;;;;;;19.70;4.90;;;;;;;19.18;79.40;99247.86;108267;1284;21992;-64
2023/01/18 11:55:40;;;;;;;17.30;3.80;;;;;;;19.34;79.08;99239.91;108251;1284;21998;-59
2023/01/18 11:58:20;;;;;;;23.10;5.00;;;;;;;19.31;76.64;99252.89;108177;1285;21989;-59
2023/01/18 12:00:54;;;;;;;14.60;3.70;;;;;;;19.25;75.16;99251.89;108165;1284;22021;-65
2023/01/18 12:03:33;;;;;;;18.70;4.10;;;;;;;19.31;74.69;99257.51;108302;1283;22451;-66
2023/01/18 12:06:26;;;;;;;23.70;4.80;;;;;;;19.21;73.88;99255.66;108251;1284;21996;-67
2023/01/18 12:09:09;;;;;;;26.00;5.70;;;;;;;19.17;73.39;99255.61;108166;1284;22037;-63
2023/01/18 12:11:43;;;;;;;20.60;4.20;;;;;;;19.21;74.68;99255.88;108244;1284;21985;-59
2023/01/18 12:14:25;;;;;;;18.90;4.70;;;;;;;19.25;74.60;99257.56;108241;1284;21993;-64
2023/01/18 12:17:20;;;;;;;23.90;5.40;;;;;;;19.15;74.17;99259.65;108215;1284;21994;-64
2023/01/18 12:19:46;;;;;;;21.40;5.50;;;;;;;19.17;74.69;99262.34;108111;1284;22002;-65
2023/01/18 12:22:24;;;;;;;24.50;4.70;;;;;;;19.11;74.56;99259.91;108320;1284;21988;-65
2023/01/18 12:25:08;;;;;;;18.70;4.90;;;;;;;19.17;75.33;99259.67;108105;1285;22034;-59
2023/01/18 12:27:49;;;;;;;17.10;3.70;;;;;;;19.18;75.82;99264.21;108097;1284;21995;-60
2023/01/18 12:30:26;;;;;;;20.40;6.60;;;;;;;19.22;75.28;99266.30;108274;1283;21993;-60
2023/01/18 12:33:01;;;;;;;21.60;6.00;;;;;;;19.40;74.86;99262.82;108178;1284;21990;-60
2023/01/18 12:35:32;;;;;;;21.80;6.50;;;;;;;19.31;73.64;99265.48;108257;1284;22003;-66
2023/01/18 12:38:21;;;;;;;16.40;4.10;;;;;;;19.37;73.71;99275.65;108316;1284;21988;-59
2023/01/18 12:41:36;;;;;;;21.40;6.80;;;;;;;19.34;73.82;99275.43;108204;1280;22001;-59
2023/01/18 12:44:21;;;;;;;26.90;5.90;;;;;;;19.48;74.60;99276.14;108037;1284;21990;-61
2023/01/18 12:46:59;;;;;;;20.80;4.70;;;;;;;19.37;72.95;99280.23;108201;1284;22038;-59
2023/01/18 12:49:25;;;;;;;18.90;4.80;;;;;;;19.40;73.46;99279.70;108237;1284;22015;-64
2023/01/18 12:51:55;;;;;;;23.10;5.10;;;;;;;19.42;72.83;99285.41;108279;1285;22167;-61
2023/01/18 12:54:25;;;;;;;21.90;5.00;;;;;;;19.43;73.37;99290.64;108129;1284;22293;-66
2023/01/18 12:56:52;;;;;;;19.80;4.20;;;;;;;19.38;72.87;99294.91;108174;1285;21997;-61
2023/01/18 12:59:23;;;;;;;20.30;4.30;;;;;;;19.51;72.08;99295.48;108124;1284;21985;-66
2023/01/18 13:02:03;;;;;;;22.00;4.50;;;;;;;19.59;71.29;99305.83;108091;1284;21993;-60
2023/01/18 13:04:36;;;;;;;24.10;4.50;;;;;;;19.46;72.43;99310.91;108100;1284;22062;-66
2023/01/18 13:07:06;;;;;;;16.90;4.90;;;;;;;19.45;73.24;99309.23;108109;1284;22008;-66
2023/01/18 13:09:38;;;;;;;18.10;5.50;;;;;;;19.47;73.48;99311.23;108110;1283;21993;-60
2023/01/18 13:12:05;;;;;;;17.60;4.90;;;;;;;19.45;73.13;99311.39;108131;1283;21994;-60
2023/01/18 18:06:20;;;;;;;25.90;6.80;;;;;;;10.73;100.00;99687.10;107321;1291;548108;-63
2023/01/18 18:08:46;;;;;;;32.10;6.70;;;;;;;13.69;100.00;99681.14;107741;1293;22006;-63
2023/01/18 18:11:12;;;;;;;34.20;7.10;;;;;;;14.27;100.00;99682.18;107603;1294;21997;-64
2023/01/18 18:13:40;;;;;;;31.00;7.10;;;;;;;14.49;100.00;99677.63;107578;1294;22037;-63
2023/01/18 18:16:06;;;;;;;22.70;6.00;;;;;;;14.66;100.00;99676.59;107725;1294;24378;-63
2023/01/18 18:18:34;;;;;;;26.00;7.30;;;;;;;14.82;100.00;99673.65;107191;1292;300708;-63
2023/01/18 18:21:01;;;;;;;21.50;5.80;;;;;;;14.99;100.00;99664.14;107736;1284;22003;-70
2023/01/18 18:23:27;;;;;;;25.00;5.80;;;;;;;15.11;100.00;99668.27;107698;1291;22005;-63
2023/01/18 18:25:58;;;;;;;22.40;5.20;;;;;;;15.25;99.96;99672.24;107731;1290;23612;-63
2023/01/18 18:28:26;;;;;;;30.50;6.30;;;;;;;15.31;99.43;99673.77;107701;1291;21996;-63
2023/01/18 18:30:52;;;;;;;23.90;5.30;;;;;;;15.31;98.73;99673.05;107759;1291;23713;-70
2023/01/18 18:33:20;;;;;;;19.70;4.60;;;;;;;15.39;97.76;99676.08;107738;1291;22073;-63
2023/01/18 18:35:46;;;;;;;22.00;6.90;;;;;;;15.39;97.52;99676.23;107708;1291;22053;-68
2023/01/18 18:38:14;;;;;;;28.20;5.30;;;;;;;15.38;96.80;99680.00;107781;1289;21997;-69
2023/01/18 18:40:44;;;;;;;19.80;5.00;;;;;;;15.36;96.94;99680.81;107809;1291;23654;-69
2023/01/18 18:43:10;;;;;;;20.50;4.70;;;;;;;15.37;96.20;99689.77;107800;1289;21998;-64
2023/01/18 18:45:36;;;;;;;21.30;4.30;;;;;;;15.36;95.73;99688.38;107675;1291;22010;-70
2023/01/18 18:48:02;;;;;;;27.40;5.10;;;;;;;15.37;95.57;99692.08;107772;1291;22000;-65
2023/01/18 18:50:28;;;;;;;22.20;5.00;;;;;;;15.35;94.88;99692.14;107778;1290;21998;-63
2023/01/18 18:52:53;;;;;;;17.60;5.40;;;;;;;15.33;94.42;99689.58;107669;1290;21998;-69
2023/01/18 18:55:21;;;;;;;26.00;5.00;;;;;;;15.29;94.31;99695.58;107813;1290;24914;-69
2023/01/18 18:57:46;;;;;;;17.50;4.90;;;;;;;15.28;94.04;99698.08;107811;1290;21999;-66
2023/01/18 19:00:13;;;;;;;19.50;5.00;;;;;;;15.30;93.51;99702.25;107798;1290;22006;-62
2023/01/18 19:02:43;;;;;;;22.50;5.60;;;;;;;15.29;93.29;99709.16;107675;1290;21993;-69
2023/01/18 19:05:09;;;;;;;18.50;5.40;;;;;;;15.27;93.16;99709.64;107663;1290;22001;-69
2023/01/18 19:07:37;;;;;;;23.00;6.10;;;;;;;15.25;92.86;99708.81;107765;1290;22898;-69
2023/01/18 19:10:03;;;;;;;12.50;4.30;;;;;;;15.25;92.60;99717.49;107869;1288;23814;-64
2023/01/18 19:12:30;;;;;;;23.20;5.30;;;;;;;15.19;92.26;99723.39;107909;1286;22006;-70
2023/01/18 19:14:57;;;;;;;20.50;5.40;;;;;;;15.15;92.03;99731.15;107792;1290;22002;-63
2023/01/18 19:17:23;;;;;;;18.20;5.30;;;;;;;15.13;91.86;99734.77;107720;1287;22268;-70
2023/01/18 19:19:48;;;;;;;22.90;5.60;;;;;;;15.09;91.63;99734.58;107821;1290;22008;-63
2023/01/18 19:22:14;;;;;;;22.20;5.80;;;;;;;15.07;91.72;99734.33;107727;1290;22000;-64
2023/01/18 19:24:42;;;;;;;26.70;10.30;;;;;;;15.07;91.40;99738.71;107740;1290;22748;-70
2023/01/18 19:27:08;;;;;;;33.20;14.70;;;;;;;15.03;91.06;99744.38;107816;1285;24316;-64
2023/01/18 19:29:34;;;;;;;30.10;15.90;;;;;;;15.00;90.88;99746.42;107692;1290;22005;-70
2023/01/18 19:31:59;;;;;;;26.30;11.60;;;;;;;14.99;90.70;99748.23;107691;1290;22171;-70
2023/01/18 19:34:25;;;;;;;30.30;8.50;;;;;;;14.96;90.59;99752.61;107715;1290;23725;-63
2023/01/18 19:36:51;;;;;;;23.80;6.50;;;;;;;14.92;90.18;99753.66;107757;1290;21993;-63
2023/01/18 19:39:17;;;;;;;25.50;5.40;;;;;;;14.86;89.79;99753.50;107724;1290;22066;-70
2023/01/18 19:41:43;;;;;;;19.30;6.50;;;;;;;14.82;89.73;99754.89;107751;1290;22090;-70
2023/01/18 19:44:11;;;;;;;24.10;6.30;;;;;;;14.80;89.93;99757.80;107861;1287;22001;-63
2023/01/18 19:46:37;;;;;;;22.10;4.20;;;;;;;14.77;90.25;99767.51;107760;1286;22053;-64
2023/01/18 19:49:04;;;;;;;20.10;4.60;;;;;;;14.72;90.53;99766.62;107851;1290;22013;-70
2023/01/18 19:51:30;;;;;;;17.50;4.80;;;;;;;14.71;90.52;99769.85;107933;1290;22003;-70
2023/01/18 19:53:57;;;;;;;20.20;4.10;;;;;;;14.65;90.16;99770.39;107974;1290;22006;-64
2023/01/18 19:56:27;;;;;;;26.20;6.30;;;;;;;14.60;90.10;99771.46;107910;1290;22014;-70
2023/01/18 19:58:53;;;;;;;23.20;4.40;;;;;;;14.60;89.75;99775.70;107893;1290;22464;-69
2023/01/18 20:01:19;;;;;;;13.60;3.80;;;;;;;14.58;89.83;99782.84;107892;1290;22184;-70
2023/01/18 20:03:45;;;;;;;21.10;4.70;;;;;;;14.59;89.97;99782.27;107801;1290;21996;-64
2023/01/18 20:06:15;;;;;;;23.80;5.90;;;;;;;14.60;89.90;99778.69;107845;1291;21995;-64
2023/01/18 20:08:41;;;;;;;22.40;5.80;;;;;;;14.60;90.03;99777.44;107994;1291;22064;-69
2023/01/18 20:11:09;;;;;;;18.80;5.70;;;;;;;14.63;90.18;99773.11;107997;1291;23620;-63
2023/01/18 20:13:35;;;;;;;21.80;5.00;;;;;;;14.63;90.43;99772.05;108018;1291;21996;-63
2023/01/18 20:16:03;;;;;;;21.30;6.10;;;;;;;14.63;90.20;99769.38;107862;1291;21998;-63
2023/01/18 20:18:32;;;;;;;24.00;6.60;;;;;;;14.63;89.81;99768.19;107913;1291;21998;-63
2023/01/18 20:21:05;;;;;;;18.00;6.40;;;;;;;14.60;89.61;99770.91;107795;1290;22009;-63
2023/01/18 20:23:31;;;;;;;27.80;6.50;;;;;;;14.60;89.55;99775.72;107798;1291;22007;-70
2023/01/18 20:25:57;;;;;;;23.20;6.10;;;;;;;14.60;89.65;99781.34;107811;1291;21998;-70
2023/01/18 20:28:22;;;;;;;23.10;6.60;;;;;;;14.62;89.83;99784.64;107917;1291;22003;-70
2023/01/18 20:30:49;;;;;;;22.60;6.70;;;;;;;14.62;89.97;99787.63;107913;1287;22004;-62
2023/01/18 20:33:15;;;;;;;20.90;5.40;;;;;;;14.63;90.24;99788.66;107973;1291;21997;-70
2023/01/18 20:35:41;;;;;;;20.10;4.90;;;;;;;14.67;90.33;99787.27;107913;1291;22010;-70
2023/01/18 20:38:09;;;;;;;25.50;6.80;;;;;;;14.72;90.22;99785.70;107795;1291;22045;-70
2023/01/18 20:40:35;;;;;;;21.60;6.00;;;;;;;14.64;90.74;99786.32;107814;1291;22000;-70
2023/01/18 20:43:01;;;;;;;23.90;5.70;;;;;;;14.63;91.09;99789.70;107842;1291;22008;-65
2023/01/18 20:45:30;;;;;;;16.80;4.30;;;;;;;14.66;91.21;99795.94;107888;1291;24401;-71
2023/01/18 20:47:55;;;;;;;19.20;4.70;;;;;;;14.68;91.25;99797.12;107952;1291;22002;-64
2023/01/18 20:50:23;;;;;;;24.60;5.40;;;;;;;14.72;91.33;99796.98;108007;1291;22000;-70
2023/01/18 20:52:49;;;;;;;25.00;5.70;;;;;;;14.76;91.30;99803.55;107999;1291;22025;-63
2023/01/18 20:55:17;;;;;;;27.50;6.00;;;;;;;14.78;91.22;99808.41;107961;1291;22387;-64
2023/01/18 20:57:43;;;;;;;22.70;5.10;;;;;;;14.78;90.70;99814.06;108013;1291;21997;-70
2023/01/18 21:00:11;;;;;;;22.10;6.30;;;;;;;14.77;90.40;99813.95;107883;1291;22002;-64
2023/01/18 21:02:39;;;;;;;19.70;6.10;;;;;;;14.73;89.80;99811.60;107792;1291;21997;-63
2023/01/18 21:05:07;;;;;;;26.40;8.50;;;;;;;14.68;89.24;99817.09;107940;1290;22003;-63
2023/01/18 21:07:37;;;;;;;23.10;7.60;;;;;;;14.57;89.17;99814.99;107795;1290;21999;-62
2023/01/18 21:10:03;;;;;;;30.20;7.90;;;;;;;14.55;89.04;99816.68;107753;1290;21997;-69
2023/01/18 21:12:28;;;;;;;24.60;7.80;;;;;;;14.51;88.79;99816.30;107795;1290;23655;-62
2023/01/18 21:14:54;;;;;;;24.60;9.00;;;;;;;14.44;88.75;99819.89;107799;1290;21999;-70
2023/01/18 21:17:20;;;;;;;27.80;8.80;;;;;;;14.39;88.68;99819.19;107802;1290;21998;-62
2023/01/18 21:19:46;;;;;;;27.50;8.00;;;;;;;14.36;89.01;99818.78;107719;1290;22000;-70
2023/01/18 21:22:14;;;;;;;24.80;7.70;;;;;;;14.33;88.99;99820.33;107775;1290;21997;-63
2023/01/18 21:24:40;;;;;;;26.50;7.60;;;;;;;14.29;88.87;99821.14;107753;1290;23666;-62